sensor_id;sensor_type;location;lat;lon;timestamp;temperature;humidity
64874;HTU21D;51367;45.204;38.576;2023-12-22T00:02:12;9.95;87.73
64874;HTU21D;51367;45.204;38.576;2023-12-22T00:04:38;10.00;87.78
64874;HTU21D;51367;45.204;38.576;2023-12-22T00:07:04;10.05;87.70
64874;HTU21D;51367;45.204;38.576;2023-12-22T00:09:30;10.09;87.68
64874;HTU21D;51367;45.204;38.576;2023-12-22T00:11:56;10.10;87.66
64874;HTU21D;51367;45.204;38.576;2023-12-22T00:14:22;10.13;87.68
64874;HTU21D;51367;45.204;38.576;2023-12-22T00:16:48;10.13;87.68
64874;HTU21D;51367;45.204;38.576;2023-12-22T00:19:14;10.13;87.62
64874;HTU21D;51367;45.204;38.576;2023-12-22T00:21:40;10.11;87.67
64874;HTU21D;51367;45.204;38.576;2023-12-22T00:24:06;10.11;87.74
64874;HTU21D;51367;45.204;38.576;2023-12-22T00:26:32;10.09;87.80
64874;HTU21D;51367;45.204;38.576;2023-12-22T00:28:58;10.09;87.83
64874;HTU21D;51367;45.204;38.576;2023-12-22T00:31:24;10.09;87.94
64874;HTU21D;51367;45.204;38.576;2023-12-22T00:33:50;10.09;87.98
64874;HTU21D;51367;45.204;38.576;2023-12-22T00:36:16;10.07;88.04
64874;HTU21D;51367;45.204;38.576;2023-12-22T00:38:44;10.07;88.15
64874;HTU21D;51367;45.204;38.576;2023-12-22T00:41:10;10.09;88.41
64874;HTU21D;51367;45.204;38.576;2023-12-22T00:43:36;10.11;88.52
64874;HTU21D;51367;45.204;38.576;2023-12-22T00:46:02;10.18;88.64
64874;HTU21D;51367;45.204;38.576;2023-12-22T00:48:28;10.22;88.80
64874;HTU21D;51367;45.204;38.576;2023-12-22T00:50:54;10.29;88.76
64874;HTU21D;51367;45.204;38.576;2023-12-22T00:53:20;10.34;88.76
64874;HTU21D;51367;45.204;38.576;2023-12-22T00:55:46;10.39;88.73
64874;HTU21D;51367;45.204;38.576;2023-12-22T00:58:12;10.42;88.70
64874;HTU21D;51367;45.204;38.576;2023-12-22T01:00:37;10.46;88.64
64874;HTU21D;51367;45.204;38.576;2023-12-22T01:03:04;10.49;88.55
64874;HTU21D;51367;45.204;38.576;2023-12-22T01:05:30;10.51;88.54
64874;HTU21D;51367;45.204;38.576;2023-12-22T01:07:56;10.51;88.47
64874;HTU21D;51367;45.204;38.576;2023-12-22T01:10:22;10.51;88.49
64874;HTU21D;51367;45.204;38.576;2023-12-22T01:12:48;10.50;88.54
64874;HTU21D;51367;45.204;38.576;2023-12-22T01:15:14;10.53;88.56
64874;HTU21D;51367;45.204;38.576;2023-12-22T01:17:40;10.54;88.58
64874;HTU21D;51367;45.204;38.576;2023-12-22T01:20:06;10.55;88.57
64874;HTU21D;51367;45.204;38.576;2023-12-22T01:22:32;10.56;88.64
64874;HTU21D;51367;45.204;38.576;2023-12-22T01:25:00;10.57;88.65
64874;HTU21D;51367;45.204;38.576;2023-12-22T01:27:26;10.58;88.67
64874;HTU21D;51367;45.204;38.576;2023-12-22T01:29:52;10.59;88.70
64874;HTU21D;51367;45.204;38.576;2023-12-22T01:32:18;10.63;88.70
64874;HTU21D;51367;45.204;38.576;2023-12-22T01:34:45;10.63;88.71
64874;HTU21D;51367;45.204;38.576;2023-12-22T01:37:11;10.62;88.70
64874;HTU21D;51367;45.204;38.576;2023-12-22T01:39:37;10.64;88.74
64874;HTU21D;51367;45.204;38.576;2023-12-22T01:42:03;10.63;88.75
64874;HTU21D;51367;45.204;38.576;2023-12-22T01:44:29;10.63;88.75
64874;HTU21D;51367;45.204;38.576;2023-12-22T01:46:55;10.64;88.81
64874;HTU21D;51367;45.204;38.576;2023-12-22T01:49:22;10.63;88.78
64874;HTU21D;51367;45.204;38.576;2023-12-22T01:51:49;10.63;88.85
64874;HTU21D;51367;45.204;38.576;2023-12-22T01:54:15;10.62;88.89
64874;HTU21D;51367;45.204;38.576;2023-12-22T01:56:42;10.62;88.98
64874;HTU21D;51367;45.204;38.576;2023-12-22T01:59:08;10.63;89.05
64874;HTU21D;51367;45.204;38.576;2023-12-22T02:01:35;10.65;89.18
64874;HTU21D;51367;45.204;38.576;2023-12-22T02:04:02;10.67;89.16
64874;HTU21D;51367;45.204;38.576;2023-12-22T02:06:30;10.69;89.24
64874;HTU21D;51367;45.204;38.576;2023-12-22T02:08:57;10.70;89.25
64874;HTU21D;51367;45.204;38.576;2023-12-22T02:11:23;10.71;89.28
64874;HTU21D;51367;45.204;38.576;2023-12-22T02:13:49;10.72;89.27
64874;HTU21D;51367;45.204;38.576;2023-12-22T02:16:25;10.72;89.27
64874;HTU21D;51367;45.204;38.576;2023-12-22T02:18:55;10.73;89.31
64874;HTU21D;51367;45.204;38.576;2023-12-22T02:21:22;10.73;89.31
64874;HTU21D;51367;45.204;38.576;2023-12-22T02:23:48;10.72;89.38
64874;HTU21D;51367;45.204;38.576;2023-12-22T02:26:38;10.74;89.44
64874;HTU21D;51367;45.204;38.576;2023-12-22T02:29:08;10.75;89.38
64874;HTU21D;51367;45.204;38.576;2023-12-22T02:31:42;10.78;89.42
64874;HTU21D;51367;45.204;38.576;2023-12-22T02:34:14;10.79;89.37
64874;HTU21D;51367;45.204;38.576;2023-12-22T02:36:44;10.79;89.38
64874;HTU21D;51367;45.204;38.576;2023-12-22T02:39:11;10.80;89.37
64874;HTU21D;51367;45.204;38.576;2023-12-22T02:41:39;10.80;89.38
64874;HTU21D;51367;45.204;38.576;2023-12-22T02:44:05;10.83;89.47
64874;HTU21D;51367;45.204;38.576;2023-12-22T02:46:31;10.84;89.47
64874;HTU21D;51367;45.204;38.576;2023-12-22T02:48:57;10.86;89.50
64874;HTU21D;51367;45.204;38.576;2023-12-22T02:51:23;10.87;89.50
64874;HTU21D;51367;45.204;38.576;2023-12-22T02:53:49;10.92;89.47
64874;HTU21D;51367;45.204;38.576;2023-12-22T02:56:15;10.93;89.40
64874;HTU21D;51367;45.204;38.576;2023-12-22T02:58:41;10.96;89.41
64874;HTU21D;51367;45.204;38.576;2023-12-22T03:01:07;10.97;89.37
64874;HTU21D;51367;45.204;38.576;2023-12-22T03:03:32;10.98;89.39
64874;HTU21D;51367;45.204;38.576;2023-12-22T03:05:58;11.00;89.34
64874;HTU21D;51367;45.204;38.576;2023-12-22T03:08:24;11.03;89.34
64874;HTU21D;51367;45.204;38.576;2023-12-22T03:10:50;11.03;89.27
64874;HTU21D;51367;45.204;38.576;2023-12-22T03:13:16;11.03;89.22
64874;HTU21D;51367;45.204;38.576;2023-12-22T03:15:42;11.03;89.22
64874;HTU21D;51367;45.204;38.576;2023-12-22T03:18:08;11.04;89.24
64874;HTU21D;51367;45.204;38.576;2023-12-22T03:20:34;11.03;89.19
64874;HTU21D;51367;45.204;38.576;2023-12-22T03:23:00;11.03;89.21
64874;HTU21D;51367;45.204;38.576;2023-12-22T03:25:26;10.99;89.24
64874;HTU21D;51367;45.204;38.576;2023-12-22T03:27:52;10.98;89.37
64874;HTU21D;51367;45.204;38.576;2023-12-22T03:30:18;10.97;89.41
64874;HTU21D;51367;45.204;38.576;2023-12-22T03:32:44;10.93;89.50
64874;HTU21D;51367;45.204;38.576;2023-12-22T03:35:10;10.92;89.63
64874;HTU21D;51367;45.204;38.576;2023-12-22T03:37:35;10.90;89.70
64874;HTU21D;51367;45.204;38.576;2023-12-22T03:40:01;10.88;89.73
64874;HTU21D;51367;45.204;38.576;2023-12-22T03:42:27;10.85;89.78
64874;HTU21D;51367;45.204;38.576;2023-12-22T03:44:53;10.82;89.86
64874;HTU21D;51367;45.204;38.576;2023-12-22T03:47:19;10.81;89.95
64874;HTU21D;51367;45.204;38.576;2023-12-22T03:49:45;10.75;90.15
64874;HTU21D;51367;45.204;38.576;2023-12-22T03:52:11;10.74;90.30
64874;HTU21D;51367;45.204;38.576;2023-12-22T03:54:37;10.73;90.38
64874;HTU21D;51367;45.204;38.576;2023-12-22T03:57:03;10.70;90.50
64874;HTU21D;51367;45.204;38.576;2023-12-22T03:59:29;10.69;90.55
64874;HTU21D;51367;45.204;38.576;2023-12-22T04:01:55;10.67;90.66
64874;HTU21D;51367;45.204;38.576;2023-12-22T04:04:22;10.66;90.76
64874;HTU21D;51367;45.204;38.576;2023-12-22T04:06:49;10.64;90.82
64874;HTU21D;51367;45.204;38.576;2023-12-22T04:09:15;10.60;90.88
64874;HTU21D;51367;45.204;38.576;2023-12-22T04:11:41;10.59;90.94
64874;HTU21D;51367;45.204;38.576;2023-12-22T04:14:07;10.56;90.97
64874;HTU21D;51367;45.204;38.576;2023-12-22T04:16:36;10.55;91.07
64874;HTU21D;51367;45.204;38.576;2023-12-22T04:19:03;10.51;91.10
64874;HTU21D;51367;45.204;38.576;2023-12-22T04:21:29;10.49;91.15
64874;HTU21D;51367;45.204;38.576;2023-12-22T04:23:55;10.45;91.23
64874;HTU21D;51367;45.204;38.576;2023-12-22T04:26:21;10.42;91.28
64874;HTU21D;51367;45.204;38.576;2023-12-22T04:28:47;10.41;91.38
64874;HTU21D;51367;45.204;38.576;2023-12-22T04:31:13;10.38;91.43
64874;HTU21D;51367;45.204;38.576;2023-12-22T04:33:38;10.36;91.47
64874;HTU21D;51367;45.204;38.576;2023-12-22T04:36:04;10.36;91.54
64874;HTU21D;51367;45.204;38.576;2023-12-22T04:38:30;10.36;91.56
64874;HTU21D;51367;45.204;38.576;2023-12-22T04:40:56;10.34;91.60
64874;HTU21D;51367;45.204;38.576;2023-12-22T04:43:22;10.34;91.60
64874;HTU21D;51367;45.204;38.576;2023-12-22T04:45:48;10.33;91.63
64874;HTU21D;51367;45.204;38.576;2023-12-22T04:48:14;10.31;91.67
64874;HTU21D;51367;45.204;38.576;2023-12-22T04:50:40;10.30;91.71
64874;HTU21D;51367;45.204;38.576;2023-12-22T04:53:06;10.31;91.73
64874;HTU21D;51367;45.204;38.576;2023-12-22T04:55:32;10.29;91.77
64874;HTU21D;51367;45.204;38.576;2023-12-22T04:57:58;10.28;91.77
64874;HTU21D;51367;45.204;38.576;2023-12-22T05:00:24;10.29;91.80
64874;HTU21D;51367;45.204;38.576;2023-12-22T05:02:50;10.29;91.82
64874;HTU21D;51367;45.204;38.576;2023-12-22T05:05:16;10.28;91.85
64874;HTU21D;51367;45.204;38.576;2023-12-22T05:07:42;10.29;91.89
64874;HTU21D;51367;45.204;38.576;2023-12-22T05:10:08;10.29;91.90
64874;HTU21D;51367;45.204;38.576;2023-12-22T05:12:34;10.29;91.91
64874;HTU21D;51367;45.204;38.576;2023-12-22T05:15:00;10.26;91.92
64874;HTU21D;51367;45.204;38.576;2023-12-22T05:17:26;10.27;91.94
64874;HTU21D;51367;45.204;38.576;2023-12-22T05:19:52;10.29;92.01
64874;HTU21D;51367;45.204;38.576;2023-12-22T05:22:18;10.29;92.04
64874;HTU21D;51367;45.204;38.576;2023-12-22T05:24:44;10.30;92.06
64874;HTU21D;51367;45.204;38.576;2023-12-22T05:27:10;10.33;92.09
64874;HTU21D;51367;45.204;38.576;2023-12-22T05:29:36;10.36;92.12
64874;HTU21D;51367;45.204;38.576;2023-12-22T05:32:02;10.38;92.24
64874;HTU21D;51367;45.204;38.576;2023-12-22T05:34:28;10.38;92.25
64874;HTU21D;51367;45.204;38.576;2023-12-22T05:36:54;10.39;92.25
64874;HTU21D;51367;45.204;38.576;2023-12-22T05:39:20;10.41;92.27
64874;HTU21D;51367;45.204;38.576;2023-12-22T05:41:46;10.40;92.24
64874;HTU21D;51367;45.204;38.576;2023-12-22T05:44:12;10.40;92.26
64874;HTU21D;51367;45.204;38.576;2023-12-22T05:46:38;10.36;92.20
64874;HTU21D;51367;45.204;38.576;2023-12-22T05:49:04;10.35;92.32
64874;HTU21D;51367;45.204;38.576;2023-12-22T05:51:36;10.30;92.43
64874;HTU21D;51367;45.204;38.576;2023-12-22T05:54:04;10.27;92.59
64874;HTU21D;51367;45.204;38.576;2023-12-22T05:56:30;10.31;92.78
64874;HTU21D;51367;45.204;38.576;2023-12-22T05:58:56;10.34;92.75
64874;HTU21D;51367;45.204;38.576;2023-12-22T06:01:22;10.35;92.86
64874;HTU21D;51367;45.204;38.576;2023-12-22T06:03:48;10.40;92.91
64874;HTU21D;51367;45.204;38.576;2023-12-22T06:06:14;10.42;92.82
64874;HTU21D;51367;45.204;38.576;2023-12-22T06:08:40;10.43;92.76
64874;HTU21D;51367;45.204;38.576;2023-12-22T06:11:06;10.45;92.72
64874;HTU21D;51367;45.204;38.576;2023-12-22T06:13:32;10.45;92.72
64874;HTU21D;51367;45.204;38.576;2023-12-22T06:15:58;10.48;92.73
64874;HTU21D;51367;45.204;38.576;2023-12-22T06:18:24;10.46;92.68
64874;HTU21D;51367;45.204;38.576;2023-12-22T06:20:50;10.48;92.68
64874;HTU21D;51367;45.204;38.576;2023-12-22T06:23:16;10.46;92.66
64874;HTU21D;51367;45.204;38.576;2023-12-22T06:25:42;10.46;92.68
64874;HTU21D;51367;45.204;38.576;2023-12-22T06:28:08;10.44;92.66
64874;HTU21D;51367;45.204;38.576;2023-12-22T06:30:34;10.43;92.69
64874;HTU21D;51367;45.204;38.576;2023-12-22T06:33:01;10.42;92.75
64874;HTU21D;51367;45.204;38.576;2023-12-22T06:35:27;10.40;92.75
64874;HTU21D;51367;45.204;38.576;2023-12-22T06:37:53;10.40;92.80
64874;HTU21D;51367;45.204;38.576;2023-12-22T06:40:20;10.40;92.91
64874;HTU21D;51367;45.204;38.576;2023-12-22T06:42:46;10.41;93.09
64874;HTU21D;51367;45.204;38.576;2023-12-22T06:45:12;10.42;93.39
64874;HTU21D;51367;45.204;38.576;2023-12-22T06:47:38;10.44;93.82
64874;HTU21D;51367;45.204;38.576;2023-12-22T06:50:04;10.50;94.20
64874;HTU21D;51367;45.204;38.576;2023-12-22T06:52:31;10.55;94.42
64874;HTU21D;51367;45.204;38.576;2023-12-22T06:54:57;10.60;94.41
64874;HTU21D;51367;45.204;38.576;2023-12-22T06:57:23;10.69;94.44
64874;HTU21D;51367;45.204;38.576;2023-12-22T06:59:49;10.79;94.44
64874;HTU21D;51367;45.204;38.576;2023-12-22T07:02:15;10.88;94.43
64874;HTU21D;51367;45.204;38.576;2023-12-22T07:07:36;11.13;94.80
64874;HTU21D;51367;45.204;38.576;2023-12-22T07:10:02;11.25;94.78
64874;HTU21D;51367;45.204;38.576;2023-12-22T07:12:28;11.36;94.81
64874;HTU21D;51367;45.204;38.576;2023-12-22T07:14:54;11.49;94.86
64874;HTU21D;51367;45.204;38.576;2023-12-22T07:17:20;11.63;94.91
64874;HTU21D;51367;45.204;38.576;2023-12-22T07:19:46;11.73;94.72
64874;HTU21D;51367;45.204;38.576;2023-12-22T07:22:12;11.84;94.55
64874;HTU21D;51367;45.204;38.576;2023-12-22T07:24:40;11.94;94.33
64874;HTU21D;51367;45.204;38.576;2023-12-22T07:27:06;12.04;94.20
64874;HTU21D;51367;45.204;38.576;2023-12-22T07:29:32;12.13;94.04
64874;HTU21D;51367;45.204;38.576;2023-12-22T07:31:58;12.19;93.82
64874;HTU21D;51367;45.204;38.576;2023-12-22T07:34:24;12.22;93.59
64874;HTU21D;51367;45.204;38.576;2023-12-22T07:36:56;12.26;93.40
64874;HTU21D;51367;45.204;38.576;2023-12-22T07:39:22;12.27;93.27
64874;HTU21D;51367;45.204;38.576;2023-12-22T07:41:48;12.32;93.17
64874;HTU21D;51367;45.204;38.576;2023-12-22T07:44:14;12.36;93.04
64874;HTU21D;51367;45.204;38.576;2023-12-22T07:46:40;12.46;92.88
64874;HTU21D;51367;45.204;38.576;2023-12-22T07:49:06;12.58;92.80
64874;HTU21D;51367;45.204;38.576;2023-12-22T07:51:32;12.71;92.67
64874;HTU21D;51367;45.204;38.576;2023-12-22T07:53:58;12.85;92.05
64874;HTU21D;51367;45.204;38.576;2023-12-22T07:56:24;12.96;91.40
64874;HTU21D;51367;45.204;38.576;2023-12-22T07:58:50;13.08;91.29
64874;HTU21D;51367;45.204;38.576;2023-12-22T08:01:16;13.18;90.22
64874;HTU21D;51367;45.204;38.576;2023-12-22T08:03:42;13.19;89.65
64874;HTU21D;51367;45.204;38.576;2023-12-22T08:06:08;13.16;89.05
64874;HTU21D;51367;45.204;38.576;2023-12-22T08:08:34;13.10;88.67
64874;HTU21D;51367;45.204;38.576;2023-12-22T08:11:00;13.05;88.23
64874;HTU21D;51367;45.204;38.576;2023-12-22T08:13:26;13.00;88.13
64874;HTU21D;51367;45.204;38.576;2023-12-22T08:15:53;12.94;88.48
64874;HTU21D;51367;45.204;38.576;2023-12-22T08:18:19;12.89;87.93
64874;HTU21D;51367;45.204;38.576;2023-12-22T08:20:45;12.84;86.94
64874;HTU21D;51367;45.204;38.576;2023-12-22T08:23:10;12.77;87.22
64874;HTU21D;51367;45.204;38.576;2023-12-22T08:25:38;12.74;86.94
64874;HTU21D;51367;45.204;38.576;2023-12-22T08:28:05;12.69;86.95
64874;HTU21D;51367;45.204;38.576;2023-12-22T08:30:31;12.67;87.30
64874;HTU21D;51367;45.204;38.576;2023-12-22T08:32:57;12.65;87.28
64874;HTU21D;51367;45.204;38.576;2023-12-22T08:35:23;12.65;87.17
64874;HTU21D;51367;45.204;38.576;2023-12-22T08:37:50;12.65;87.24
64874;HTU21D;51367;45.204;38.576;2023-12-22T08:40:15;12.70;87.46
64874;HTU21D;51367;45.204;38.576;2023-12-22T08:42:41;12.71;87.43
64874;HTU21D;51367;45.204;38.576;2023-12-22T08:45:08;12.73;87.25
64874;HTU21D;51367;45.204;38.576;2023-12-22T08:47:34;12.73;86.92
64874;HTU21D;51367;45.204;38.576;2023-12-22T08:49:59;12.73;86.66
64874;HTU21D;51367;45.204;38.576;2023-12-22T08:52:29;12.72;86.54
64874;HTU21D;51367;45.204;38.576;2023-12-22T08:54:56;12.73;86.35
64874;HTU21D;51367;45.204;38.576;2023-12-22T08:57:22;12.74;86.48
64874;HTU21D;51367;45.204;38.576;2023-12-22T08:59:48;12.76;86.28
64874;HTU21D;51367;45.204;38.576;2023-12-22T09:02:13;12.78;86.29
64874;HTU21D;51367;45.204;38.576;2023-12-22T09:04:39;12.80;86.37
64874;HTU21D;51367;45.204;38.576;2023-12-22T09:07:06;12.85;85.71
64874;HTU21D;51367;45.204;38.576;2023-12-22T09:09:31;12.86;84.87
64874;HTU21D;51367;45.204;38.576;2023-12-22T09:11:57;12.89;85.09
64874;HTU21D;51367;45.204;38.576;2023-12-22T09:14:23;12.92;84.57
64874;HTU21D;51367;45.204;38.576;2023-12-22T09:16:49;12.94;84.25
64874;HTU21D;51367;45.204;38.576;2023-12-22T09:19:15;12.96;84.14
64874;HTU21D;51367;45.204;38.576;2023-12-22T09:21:41;12.96;84.02
64874;HTU21D;51367;45.204;38.576;2023-12-22T09:24:09;12.97;84.29
64874;HTU21D;51367;45.204;38.576;2023-12-22T09:26:38;13.01;84.06
64874;HTU21D;51367;45.204;38.576;2023-12-22T09:29:04;13.04;84.15
64874;HTU21D;51367;45.204;38.576;2023-12-22T09:31:30;13.07;84.33
64874;HTU21D;51367;45.204;38.576;2023-12-22T09:33:58;13.12;84.17
64874;HTU21D;51367;45.204;38.576;2023-12-22T09:36:24;13.20;83.98
64874;HTU21D;51367;45.204;38.576;2023-12-22T09:38:50;13.30;84.00
64874;HTU21D;51367;45.204;38.576;2023-12-22T09:41:16;13.40;82.95
64874;HTU21D;51367;45.204;38.576;2023-12-22T09:43:42;13.53;83.12
64874;HTU21D;51367;45.204;38.576;2023-12-22T09:46:10;13.64;82.82
64874;HTU21D;51367;45.204;38.576;2023-12-22T09:48:37;13.77;82.99
64874;HTU21D;51367;45.204;38.576;2023-12-22T09:51:05;13.91;82.69
64874;HTU21D;51367;45.204;38.576;2023-12-22T09:53:33;14.05;82.64
64874;HTU21D;51367;45.204;38.576;2023-12-22T09:56:00;14.15;81.81
64874;HTU21D;51367;45.204;38.576;2023-12-22T09:58:26;14.22;81.46
64874;HTU21D;51367;45.204;38.576;2023-12-22T10:00:53;14.27;81.17
64874;HTU21D;51367;45.204;38.576;2023-12-22T10:03:21;14.33;81.39
64874;HTU21D;51367;45.204;38.576;2023-12-22T10:05:50;14.34;80.94
64874;HTU21D;51367;45.204;38.576;2023-12-22T10:08:18;14.33;80.98
64874;HTU21D;51367;45.204;38.576;2023-12-22T10:10:47;14.32;81.04
64874;HTU21D;51367;45.204;38.576;2023-12-22T10:13:13;14.30;80.84
64874;HTU21D;51367;45.204;38.576;2023-12-22T10:15:40;14.32;81.25
64874;HTU21D;51367;45.204;38.576;2023-12-22T10:18:09;14.32;81.27
64874;HTU21D;51367;45.204;38.576;2023-12-22T10:20:35;14.32;81.39
64874;HTU21D;51367;45.204;38.576;2023-12-22T10:23:02;14.33;80.91
64874;HTU21D;51367;45.204;38.576;2023-12-22T10:25:28;14.33;80.71
64874;HTU21D;51367;45.204;38.576;2023-12-22T10:27:58;14.34;80.70
64874;HTU21D;51367;45.204;38.576;2023-12-22T10:30:24;14.34;80.84
64874;HTU21D;51367;45.204;38.576;2023-12-22T10:32:51;14.36;81.01
64874;HTU21D;51367;45.204;38.576;2023-12-22T10:35:20;14.38;81.14
64874;HTU21D;51367;45.204;38.576;2023-12-22T10:37:47;14.40;81.26
64874;HTU21D;51367;45.204;38.576;2023-12-22T10:40:19;14.40;81.07
64874;HTU21D;51367;45.204;38.576;2023-12-22T10:42:45;14.40;81.04
64874;HTU21D;51367;45.204;38.576;2023-12-22T10:45:11;14.39;80.95
64874;HTU21D;51367;45.204;38.576;2023-12-22T10:47:40;14.39;80.97
64874;HTU21D;51367;45.204;38.576;2023-12-22T10:50:07;14.39;81.05
64874;HTU21D;51367;45.204;38.576;2023-12-22T10:52:33;14.37;81.07
64874;HTU21D;51367;45.204;38.576;2023-12-22T10:54:59;14.36;81.11
64874;HTU21D;51367;45.204;38.576;2023-12-22T10:57:26;14.35;81.18
64874;HTU21D;51367;45.204;38.576;2023-12-22T10:59:56;14.34;81.30
64874;HTU21D;51367;45.204;38.576;2023-12-22T11:02:27;14.32;81.35
64874;HTU21D;51367;45.204;38.576;2023-12-22T11:05:05;14.29;81.50
64874;HTU21D;51367;45.204;38.576;2023-12-22T11:07:35;14.25;81.68
64874;HTU21D;51367;45.204;38.576;2023-12-22T11:10:04;14.22;81.87
64874;HTU21D;51367;45.204;38.576;2023-12-22T11:12:38;14.20;82.07
64874;HTU21D;51367;45.204;38.576;2023-12-22T11:15:05;14.19;82.26
64874;HTU21D;51367;45.204;38.576;2023-12-22T11:17:35;14.18;82.37
64874;HTU21D;51367;45.204;38.576;2023-12-22T11:20:06;14.15;82.36
64874;HTU21D;51367;45.204;38.576;2023-12-22T11:22:35;14.18;82.33
64874;HTU21D;51367;45.204;38.576;2023-12-22T11:25:03;14.17;82.30
64874;HTU21D;51367;45.204;38.576;2023-12-22T11:27:29;14.19;82.23
64874;HTU21D;51367;45.204;38.576;2023-12-22T11:29:55;14.18;82.02
64874;HTU21D;51367;45.204;38.576;2023-12-22T11:32:22;14.15;81.87
64874;HTU21D;51367;45.204;38.576;2023-12-22T11:34:48;14.12;81.56
64874;HTU21D;51367;45.204;38.576;2023-12-22T11:37:15;14.09;81.34
64874;HTU21D;51367;45.204;38.576;2023-12-22T11:39:42;14.07;81.14
64874;HTU21D;51367;45.204;38.576;2023-12-22T11:42:13;14.04;80.91
64874;HTU21D;51367;45.204;38.576;2023-12-22T11:44:40;14.00;80.87
64874;HTU21D;51367;45.204;38.576;2023-12-22T11:47:09;13.97;80.78
64874;HTU21D;51367;45.204;38.576;2023-12-22T11:49:37;13.94;80.69
64874;HTU21D;51367;45.204;38.576;2023-12-22T11:52:13;13.90;80.35
64874;HTU21D;51367;45.204;38.576;2023-12-22T11:54:46;13.85;80.49
64874;HTU21D;51367;45.204;38.576;2023-12-22T11:59:55;13.77;80.59
64874;HTU21D;51367;45.204;38.576;2023-12-22T12:02:21;13.74;80.69
64874;HTU21D;51367;45.204;38.576;2023-12-22T12:04:48;13.70;80.72
64874;HTU21D;51367;45.204;38.576;2023-12-22T12:07:46;13.66;80.72
64874;HTU21D;51367;45.204;38.576;2023-12-22T12:13:11;13.63;80.77
64874;HTU21D;51367;45.204;38.576;2023-12-22T12:15:41;13.62;80.79
64874;HTU21D;51367;45.204;38.576;2023-12-22T12:18:08;13.59;80.78
64874;HTU21D;51367;45.204;38.576;2023-12-22T12:20:35;13.59;80.68
64874;HTU21D;51367;45.204;38.576;2023-12-22T12:23:01;13.53;80.62
64874;HTU21D;51367;45.204;38.576;2023-12-22T12:25:32;13.51;80.47
64874;HTU21D;51367;45.204;38.576;2023-12-22T12:28:03;13.49;80.47
64874;HTU21D;51367;45.204;38.576;2023-12-22T12:30:30;13.45;80.24
64874;HTU21D;51367;45.204;38.576;2023-12-22T12:32:59;13.43;80.35
64874;HTU21D;51367;45.204;38.576;2023-12-22T12:35:29;13.38;80.25
64874;HTU21D;51367;45.204;38.576;2023-12-22T12:37:55;13.35;80.36
64874;HTU21D;51367;45.204;38.576;2023-12-22T12:40:23;13.32;80.39
64874;HTU21D;51367;45.204;38.576;2023-12-22T12:42:50;13.27;80.37
64874;HTU21D;51367;45.204;38.576;2023-12-22T12:45:22;13.25;80.20
64874;HTU21D;51367;45.204;38.576;2023-12-22T12:47:55;13.23;80.07
64874;HTU21D;51367;45.204;38.576;2023-12-22T12:50:22;13.24;80.00
64874;HTU21D;51367;45.204;38.576;2023-12-22T12:52:52;13.23;79.37
64874;HTU21D;51367;45.204;38.576;2023-12-22T12:55:22;13.21;79.49
64874;HTU21D;51367;45.204;38.576;2023-12-22T12:57:55;13.19;79.29
64874;HTU21D;51367;45.204;38.576;2023-12-22T13:00:27;13.15;79.10
64874;HTU21D;51367;45.204;38.576;2023-12-22T13:03:00;13.11;79.08
64874;HTU21D;51367;45.204;38.576;2023-12-22T13:05:26;13.06;79.29
64874;HTU21D;51367;45.204;38.576;2023-12-22T13:07:52;13.02;79.37
64874;HTU21D;51367;45.204;38.576;2023-12-22T13:10:24;12.97;79.43
64874;HTU21D;51367;45.204;38.576;2023-12-22T13:12:51;12.93;79.50
64874;HTU21D;51367;45.204;38.576;2023-12-22T13:15:22;12.88;79.54
64874;HTU21D;51367;45.204;38.576;2023-12-22T13:17:48;12.85;79.59
64874;HTU21D;51367;45.204;38.576;2023-12-22T13:20:15;12.80;79.64
64874;HTU21D;51367;45.204;38.576;2023-12-22T13:22:41;12.76;79.71
64874;HTU21D;51367;45.204;38.576;2023-12-22T13:25:07;12.74;79.76
64874;HTU21D;51367;45.204;38.576;2023-12-22T13:27:49;12.69;79.77
64874;HTU21D;51367;45.204;38.576;2023-12-22T13:33:01;12.62;79.85
64874;HTU21D;51367;45.204;38.576;2023-12-22T13:35:27;12.60;79.92
64874;HTU21D;51367;45.204;38.576;2023-12-22T13:37:54;12.58;79.97
64874;HTU21D;51367;45.204;38.576;2023-12-22T13:40:20;12.53;80.07
64874;HTU21D;51367;45.204;38.576;2023-12-22T13:42:56;12.51;80.11
64874;HTU21D;51367;45.204;38.576;2023-12-22T13:45:28;12.47;80.20
64874;HTU21D;51367;45.204;38.576;2023-12-22T13:47:54;12.46;80.27
64874;HTU21D;51367;45.204;38.576;2023-12-22T13:50:20;12.42;80.36
64874;HTU21D;51367;45.204;38.576;2023-12-22T13:52:49;12.40;80.43
64874;HTU21D;51367;45.204;38.576;2023-12-22T13:55:21;12.35;80.50
64874;HTU21D;51367;45.204;38.576;2023-12-22T13:57:59;12.31;80.59
64874;HTU21D;51367;45.204;38.576;2023-12-22T14:00:29;12.27;80.68
64874;HTU21D;51367;45.204;38.576;2023-12-22T14:02:57;12.23;80.81
64874;HTU21D;51367;45.204;38.576;2023-12-22T14:05:23;12.20;80.93
64874;HTU21D;51367;45.204;38.576;2023-12-22T14:07:49;12.17;80.98
64874;HTU21D;51367;45.204;38.576;2023-12-22T14:10:16;12.14;81.05
64874;HTU21D;51367;45.204;38.576;2023-12-22T14:12:42;12.12;81.16
64874;HTU21D;51367;45.204;38.576;2023-12-22T14:15:10;12.10;81.19
64874;HTU21D;51367;45.204;38.576;2023-12-22T14:17:36;12.06;81.28
64874;HTU21D;51367;45.204;38.576;2023-12-22T14:20:03;12.04;81.33
64874;HTU21D;51367;45.204;38.576;2023-12-22T14:22:38;12.02;81.40
64874;HTU21D;51367;45.204;38.576;2023-12-22T14:25:04;11.99;81.48
64874;HTU21D;51367;45.204;38.576;2023-12-22T14:27:30;11.97;81.56
64874;HTU21D;51367;45.204;38.576;2023-12-22T14:29:56;11.94;81.64
64874;HTU21D;51367;45.204;38.576;2023-12-22T14:32:22;11.92;81.75
64874;HTU21D;51367;45.204;38.576;2023-12-22T14:34:49;11.89;81.81
64874;HTU21D;51367;45.204;38.576;2023-12-22T14:37:15;11.89;81.90
64874;HTU21D;51367;45.204;38.576;2023-12-22T14:39:43;11.88;81.96
64874;HTU21D;51367;45.204;38.576;2023-12-22T14:42:11;11.87;82.06
64874;HTU21D;51367;45.204;38.576;2023-12-22T14:44:37;11.85;82.15
64874;HTU21D;51367;45.204;38.576;2023-12-22T14:47:05;11.85;82.26
64874;HTU21D;51367;45.204;38.576;2023-12-22T14:49:31;11.83;82.31
64874;HTU21D;51367;45.204;38.576;2023-12-22T14:51:57;11.82;82.41
64874;HTU21D;51367;45.204;38.576;2023-12-22T14:54:24;11.82;82.47
64874;HTU21D;51367;45.204;38.576;2023-12-22T14:56:50;11.78;82.53
64874;HTU21D;51367;45.204;38.576;2023-12-22T14:59:16;11.76;82.60
64874;HTU21D;51367;45.204;38.576;2023-12-22T15:01:43;11.74;82.70
64874;HTU21D;51367;45.204;38.576;2023-12-22T15:04:09;11.73;82.78
64874;HTU21D;51367;45.204;38.576;2023-12-22T15:06:38;11.71;82.91
64874;HTU21D;51367;45.204;38.576;2023-12-22T15:09:06;11.68;83.00
64874;HTU21D;51367;45.204;38.576;2023-12-22T15:11:32;11.64;83.09
64874;HTU21D;51367;45.204;38.576;2023-12-22T15:13:58;11.62;83.21